createdAt,value
2019-03-16T00:02:26.967Z,97781.34
2019-03-16T00:04:56.974Z,97775.19
2019-03-16T00:11:17.476Z,97775.36
2019-03-16T00:13:47.479Z,97773.80
2019-03-16T00:16:17.438Z,97772.03
2019-03-16T00:18:48.010Z,97773.52
2019-03-16T00:21:17.964Z,97772.41
2019-03-16T00:27:39.763Z,97778.59
2019-03-16T00:30:10.252Z,97777.99
2019-03-16T00:32:40.409Z,97785.23
2019-03-16T00:35:10.399Z,97785.23
2019-03-16T00:37:42.150Z,97778.62
2019-03-16T00:40:12.443Z,97777.06
2019-03-16T00:42:42.469Z,97777.84
2019-03-16T00:48:39.037Z,97782.26
2019-03-16T00:51:09.625Z,97785.98
2019-03-16T00:53:39.612Z,97780.50
2019-03-16T00:56:09.551Z,97789.39
2019-03-16T00:58:39.511Z,97783.09
2019-03-16T01:01:09.584Z,97781.50
2019-03-16T01:03:39.985Z,97787.92
2019-03-16T01:06:09.994Z,97782.92
2019-03-16T01:08:39.944Z,97779.28
2019-03-16T01:11:10.483Z,97789.80
2019-03-16T01:13:40.428Z,97787.69
2019-03-16T01:16:10.340Z,97789.51
2019-03-16T01:22:31.323Z,97792.43
2019-03-16T01:32:20.879Z,97791.20
2019-03-16T01:34:50.820Z,97785.94
2019-03-16T01:37:20.784Z,97789.36
2019-03-16T01:43:41.657Z,97791.96
2019-03-16T02:12:56.407Z,97782.87
2019-03-16T02:30:25.114Z,97783.59
2019-03-16T02:33:11.058Z,97782.52
2019-03-16T02:35:26.853Z,97776.59
2019-03-16T02:37:56.931Z,97778.73
2019-03-16T02:40:28.446Z,97773.93
2019-03-16T02:42:58.504Z,97772.98
2019-03-16T02:56:56.913Z,97771.44
2019-03-16T02:59:26.925Z,97775.38
2019-03-16T03:01:56.860Z,97774.63
2019-03-16T03:04:27.480Z,97763.50
2019-03-16T03:06:57.393Z,97778.77
2019-03-16T03:09:27.339Z,97782.20
2019-03-16T03:15:44.074Z,97777.83
2019-03-16T03:18:14.009Z,97779.50
2019-03-16T03:20:43.932Z,97774.34
2019-03-16T03:23:14.599Z,97791.56
2019-03-16T03:25:44.543Z,97798.31
2019-03-16T03:28:14.489Z,97799.68
2019-03-16T03:30:44.415Z,97808.58
2019-03-16T03:33:14.329Z,97803.16
2019-03-16T03:39:35.647Z,97804.14
2019-03-16T03:42:05.873Z,97808.34
2019-03-16T03:44:35.922Z,97811.39
2019-03-16T03:47:05.978Z,97797.28
2019-03-16T03:49:35.883Z,97810.32
2019-03-16T03:52:05.871Z,97816.50
2019-03-16T03:54:36.041Z,97817.05
2019-03-16T03:57:06.140Z,97811.80
2019-03-16T03:59:36.266Z,97811.80
2019-03-16T04:02:06.313Z,97802.95
2019-03-16T04:04:36.435Z,97809.83
2019-03-16T04:10:51.126Z,97812.95
2019-03-16T04:13:21.157Z,97803.47
2019-03-16T04:15:51.097Z,97808.88
2019-03-16T04:22:12.068Z,97811.07
2019-03-16T04:24:45.322Z,97823.20
2019-03-16T04:27:16.253Z,97825.14
2019-03-16T04:29:45.925Z,97825.55
2019-03-16T04:32:15.819Z,97828.03
2019-03-16T04:34:45.815Z,97828.37
2019-03-16T04:37:15.795Z,97826.94
2019-03-16T04:39:45.697Z,97842.48
2019-03-16T04:42:15.601Z,97833.90
2019-03-16T04:44:45.591Z,97832.73
2019-03-16T04:47:15.512Z,97836.61
2019-03-16T04:49:45.447Z,97829.88
2019-03-16T04:52:15.361Z,97830.37
2019-03-16T04:54:45.258Z,97838.28
2019-03-16T04:57:15.205Z,97829.88
2019-03-16T04:59:45.710Z,97824.04
2019-03-16T05:02:15.643Z,97829.99
2019-03-16T05:04:45.562Z,97830.58
2019-03-16T05:07:15.569Z,97827.83
2019-03-16T05:09:45.479Z,97832.02
2019-03-16T05:12:15.414Z,97833.78
2019-03-16T05:18:36.881Z,97831.84
2019-03-16T05:21:06.973Z,97828.75
2019-03-16T05:30:18.870Z,97831.50
2019-03-16T05:32:48.785Z,97830.63
2019-03-16T05:35:18.702Z,97827.02
2019-03-16T05:37:48.598Z,97830.41
2019-03-16T05:40:18.546Z,97826.47
2019-03-16T05:42:48.481Z,97830.11
2019-03-16T05:45:18.469Z,97837.19
2019-03-16T05:47:48.393Z,97829.22
2019-03-16T05:50:18.460Z,97832.28
2019-03-16T05:52:48.363Z,97832.77
2019-03-16T05:55:18.280Z,97841.78
2019-03-16T05:57:48.877Z,97851.95
2019-03-16T06:11:48.688Z,97856.27
2019-03-16T06:14:19.295Z,97860.67
2019-03-16T06:16:49.217Z,97856.86
2019-03-16T06:19:19.115Z,97863.45
2019-03-16T06:21:49.042Z,97862.13
2019-03-16T06:24:19.084Z,97860.39
2019-03-16T06:26:49.021Z,97860.02
2019-03-16T06:29:18.907Z,97865.11
2019-03-16T06:31:48.799Z,97858.55
2019-03-16T06:34:18.781Z,97860.66
2019-03-16T06:36:49.341Z,97864.35
2019-03-16T06:39:19.262Z,97868.40
2019-03-16T06:41:50.507Z,97876.64
2019-03-16T06:44:20.650Z,97882.53
2019-03-16T06:50:29.050Z,97891.17
2019-03-16T06:52:58.963Z,97889.36
2019-03-16T06:55:28.944Z,97894.19
2019-03-16T06:57:58.887Z,97897.25
2019-03-16T07:00:29.939Z,97894.38
2019-03-16T08:09:48.853Z,97937.23
2019-03-16T08:12:18.872Z,97942.77
2019-03-16T08:14:48.805Z,97943.70
2019-03-16T08:17:18.757Z,97943.53
2019-03-16T08:19:48.676Z,97944.63
2019-03-16T08:22:19.345Z,97946.95
2019-03-16T08:24:49.278Z,97949.26
2019-03-16T08:27:19.280Z,97953.83
2019-03-16T08:29:49.237Z,97955.38
2019-03-16T08:32:19.987Z,97957.08
2019-03-16T08:34:50.010Z,97957.05
2019-03-16T08:37:19.903Z,97964.06
2019-03-16T08:39:49.815Z,97959.37
2019-03-16T08:42:19.713Z,97956.54
2019-03-16T08:44:49.646Z,97961.86
2019-03-16T08:47:19.534Z,97963.92
2019-03-16T08:53:40.360Z,97965.69
2019-03-16T08:56:10.324Z,97966.06
2019-03-16T08:58:40.256Z,97967.25
2019-03-16T09:01:10.200Z,97970.80
2019-03-16T09:03:43.894Z,97959.41
2019-03-16T09:06:11.748Z,97968.61
2019-03-16T09:08:41.759Z,97966.34
2019-03-16T09:11:11.728Z,97965.08
2019-03-16T09:13:41.732Z,97974.40
2019-03-16T09:16:11.776Z,97965.65
2019-03-16T09:18:41.720Z,97968.45
2019-03-16T09:21:11.709Z,97968.45
2019-03-16T09:23:41.684Z,97971.72
2019-03-16T09:26:12.421Z,97974.22
2019-03-16T09:28:42.355Z,97976.19
2019-03-16T09:31:12.505Z,97968.16
2019-03-16T09:33:43.230Z,97973.63
2019-03-16T09:36:13.228Z,97964.23
2019-03-16T09:38:43.231Z,97958.29
2019-03-16T09:41:13.306Z,97959.78
2019-03-16T09:47:34.670Z,97959.77
2019-03-16T09:50:07.294Z,97954.92
2019-03-16T09:52:36.659Z,97953.13
2019-03-16T09:55:06.902Z,97943.86
2019-03-16T10:48:07.123Z,97915.98
2019-03-16T10:50:37.042Z,97907.16
2019-03-16T10:53:06.927Z,97906.05
2019-03-16T11:02:23.808Z,97890.19
2019-03-16T11:19:51.633Z,97879.66
2019-03-16T11:22:21.575Z,97882.61
2019-03-16T11:24:51.477Z,97876.94
2019-03-16T11:27:22.141Z,97882.37
2019-03-16T11:29:52.042Z,97867.52
2019-03-16T11:32:21.955Z,97868.30
2019-03-16T11:34:52.629Z,97852.67
2019-03-16T11:37:22.563Z,97860.47
2019-03-16T11:39:52.562Z,97854.28
2019-03-16T11:42:22.481Z,97861.81
2019-03-16T11:44:52.419Z,97865.09
2019-03-16T11:47:22.332Z,97862.79
2019-03-16T11:49:52.583Z,97867.11
2019-03-16T11:52:22.570Z,97866.91
2019-03-16T11:54:52.847Z,97862.82
2019-03-16T11:57:22.795Z,97860.47
2019-03-16T11:59:52.694Z,97858.28
2019-03-16T12:02:22.676Z,97858.13
2019-03-16T12:04:52.581Z,97855.85
2019-03-16T12:07:22.635Z,97856.47
2019-03-16T12:09:53.242Z,97848.28
2019-03-16T12:12:24.027Z,97851.78
2019-03-16T12:14:54.112Z,97859.03
2019-03-16T12:17:24.500Z,97851.13
2019-03-16T12:23:38.794Z,97841.98
2019-03-16T12:26:08.761Z,97841.91
2019-03-16T12:28:38.692Z,97841.22
2019-03-16T12:31:08.598Z,97828.09
2019-03-16T12:33:38.530Z,97831.02
2019-03-16T12:36:08.571Z,97821.36
2019-03-16T12:38:38.479Z,97816.32
2019-03-16T12:41:08.340Z,97809.56
2019-03-16T12:43:38.491Z,97801.66
2019-03-16T12:46:08.418Z,97788.92
2019-03-16T12:48:38.826Z,97784.86
2019-03-16T12:51:08.810Z,97795.82
2019-03-16T12:53:39.592Z,97794.14
2019-03-16T13:15:17.810Z,97773.03
2019-03-16T13:17:47.878Z,97772.34
2019-03-16T13:20:17.923Z,97768.95
2019-03-16T13:22:47.903Z,97761.45
2019-03-16T13:29:02.553Z,97757.56
2019-03-16T13:31:32.886Z,97763.51
2019-03-16T13:34:02.840Z,97752.59
2019-03-16T13:36:32.803Z,97755.28
2019-03-16T13:39:02.730Z,97745.23
2019-03-16T13:41:32.627Z,97746.16
2019-03-16T13:44:02.552Z,97738.90
2019-03-16T13:52:52.838Z,97737.87
2019-03-16T13:55:22.811Z,97743.09
2019-03-16T13:57:52.798Z,97743.17
2019-03-16T14:04:07.656Z,97735.41
2019-03-16T14:06:38.196Z,97735.48
2019-03-16T14:09:08.832Z,97736.53
2019-03-16T14:11:41.220Z,97731.73
2019-03-16T14:30:41.231Z,97683.00
2019-03-16T14:33:10.074Z,97681.38
2019-03-16T14:35:39.979Z,97668.39
2019-03-16T14:38:09.964Z,97662.84
2019-03-16T15:18:45.047Z,97621.52
2019-03-16T15:21:14.658Z,97614.48
2019-03-16T15:30:50.572Z,97611.15
2019-03-16T15:33:15.373Z,97612.65
2019-03-16T15:35:45.292Z,97597.86
2019-03-16T15:42:05.893Z,97595.73
2019-03-16T15:44:38.099Z,97585.73
2019-03-16T15:47:07.704Z,97579.27
2019-03-16T15:53:29.294Z,97578.84
2019-03-16T16:03:18.632Z,97564.91
2019-03-16T16:05:48.544Z,97564.93
2019-03-16T16:08:19.463Z,97556.84
2019-03-16T16:11:00.427Z,97548.68
2019-03-16T16:13:21.037Z,97549.73
2019-03-16T16:15:50.970Z,97544.90
2019-03-16T16:18:21.511Z,97542.50
2019-03-16T16:20:51.573Z,97539.37
2019-03-16T16:23:21.542Z,97534.19
2019-03-16T16:25:51.883Z,97530.50
2019-03-16T16:28:21.847Z,97532.37
2019-03-16T16:30:51.762Z,97527.16
2019-03-16T16:33:21.657Z,97525.02
2019-03-16T16:35:51.586Z,97519.75
2019-03-16T16:38:21.665Z,97518.95
2019-03-16T16:40:51.957Z,97517.34
2019-03-16T16:43:21.949Z,97511.00
2019-03-16T16:45:52.632Z,97513.20
2019-03-16T16:48:22.590Z,97509.67
2019-03-16T16:50:53.404Z,97503.66
2019-03-16T16:53:24.073Z,97499.45
2019-03-16T16:59:45.529Z,97497.02
2019-03-16T17:02:15.485Z,97499.05
2019-03-16T17:04:45.404Z,97494.00
2019-03-16T17:07:15.424Z,97493.22
2019-03-16T17:09:46.198Z,97492.64
2019-03-16T17:12:16.100Z,97489.09
2019-03-16T17:28:32.840Z,97470.44
2019-03-16T17:31:06.065Z,97457.66
2019-03-16T17:33:36.593Z,97464.45
2019-03-16T17:36:06.513Z,97463.95
2019-03-16T17:42:21.074Z,97457.80
2019-03-16T17:44:51.525Z,97450.66
2019-03-16T17:47:21.449Z,97444.41
2019-03-16T17:53:42.275Z,97452.44
2019-03-16T18:03:31.580Z,97446.68
2019-03-16T18:06:02.152Z,97449.07
2019-03-16T18:15:08.094Z,97453.09
2019-03-16T18:17:38.466Z,97457.75
2019-03-16T18:20:09.679Z,97465.60
2019-03-16T18:22:40.078Z,97460.65
2019-03-16T18:25:11.025Z,97463.53
2019-03-16T18:27:40.925Z,97454.03
2019-03-16T18:30:13.668Z,97449.45
2019-03-16T18:32:43.696Z,97450.40
2019-03-16T18:35:13.769Z,97449.97
2019-03-16T18:37:43.743Z,97452.52
2019-03-16T18:40:13.968Z,97451.92
2019-03-16T18:46:35.827Z,97446.05
2019-03-16T18:49:05.826Z,97446.90
2019-03-16T18:51:35.762Z,97435.04
2019-03-16T18:54:06.073Z,97440.04
2019-03-16T18:56:36.473Z,97440.33
2019-03-16T18:59:09.111Z,97442.06
2019-03-16T19:01:38.183Z,97439.30
2019-03-16T19:04:08.084Z,97431.43
2019-03-16T19:06:38.659Z,97425.19
2019-03-16T19:09:10.134Z,97427.83
2019-03-16T19:11:40.910Z,97426.59
2019-03-16T19:14:10.847Z,97418.29
2019-03-16T19:16:40.995Z,97418.96
2019-03-16T19:19:11.466Z,97420.11
2019-03-16T19:21:41.378Z,97418.20
2019-03-16T19:24:11.324Z,97420.53
2019-03-16T19:26:41.187Z,97416.02
2019-03-16T19:29:11.119Z,97414.92
2019-03-16T19:31:41.019Z,97416.25
2019-03-16T19:34:11.435Z,97418.14
2019-03-16T19:36:41.726Z,97410.22
2019-03-16T19:39:11.672Z,97410.35
2019-03-16T19:41:41.922Z,97407.25
2019-03-16T19:44:11.800Z,97407.49
2019-03-16T19:50:33.415Z,97396.97
2019-03-16T19:53:03.401Z,97393.78
2019-03-16T19:55:33.920Z,97393.63
2019-03-16T19:58:03.814Z,97389.80
2019-03-16T20:12:01.944Z,97377.13
2019-03-16T20:14:32.575Z,97374.84
2019-03-16T20:24:21.821Z,97370.56
2019-03-16T20:26:52.421Z,97359.55
2019-03-16T20:29:22.315Z,97361.37
2019-03-16T20:31:52.239Z,97361.11
2019-03-16T20:45:51.981Z,97358.04
2019-03-16T20:48:21.945Z,97353.42
2019-03-16T20:50:51.864Z,97362.24
2019-03-16T21:04:44.050Z,97353.03
2019-03-16T21:07:14.005Z,97348.56
2019-03-16T21:09:43.932Z,97347.25
2019-03-16T21:12:13.845Z,97342.98
2019-03-16T21:14:43.739Z,97344.58
2019-03-16T21:21:03.747Z,97352.90
2019-03-16T21:23:33.664Z,97349.39
2019-03-16T21:26:03.892Z,97358.97
2019-03-16T21:28:33.788Z,97359.63
2019-03-16T21:34:54.455Z,97355.95
2019-03-16T21:37:24.418Z,97362.54
2019-03-16T21:39:54.381Z,97364.30
2019-03-16T21:42:24.327Z,97365.16
2019-03-16T21:44:54.166Z,97363.97
2019-03-16T21:47:24.098Z,97369.48
2019-03-16T21:49:53.985Z,97369.38
2019-03-16T21:56:14.881Z,97370.75
2019-03-16T21:58:44.767Z,97360.88
2019-03-16T22:01:14.674Z,97358.34
2019-03-16T22:45:36.244Z,97299.45
2019-03-16T22:48:06.376Z,97298.95
2019-03-16T23:27:30.048Z,97250.43
2019-03-16T23:30:00.014Z,97251.34
2019-03-16T23:39:12.481Z,97226.24
